Terminal Aerodrome Forecast
Issued by NWS

Home | Current Version | Previous Version | Text Only | Print | Product List | Glossary On
Versions: 1 2 3 4 5 6 7 8 9 10 11 12 13 14 15
000
FTUS44 KMAF 011400 AAA
TAFHOB
TAF AMD
KHOB 011400Z 0114/0212 17009KT P6SM OVC003
     FM011600 17009KT P6SM SCT200
     FM020200 18008KT P6SM SCT200=

USA.gov is the U.S. government's official web portal to all federal, state and local government web resources and services.